Time;durP1;ratioP1;P1;durP2;ratioP2;P2;SDS_P1;SDS_P2;PMS_P1;PMS_P2;Temp;Humidity;BMP_temperature;BMP_pressure;BME280_temperature;BME280_humidity;BME280_pressure;Samples;Min_cycle;Max_cycle;Signal;HPM_P1;HPM_P2
2021/08/04 00:01:57;;;;;;;16.00;12.87;;;;;;;;;;5011664;28;20378;-47
2021/08/04 00:04:23;;;;;;;23.87;22.20;;;;;;;;;;5011584;28;20775;-46
2021/08/04 00:06:49;;;;;;;10.87;9.80;;;;;;;;;;5011408;28;20398;-47
2021/08/04 00:09:15;;;;;;;10.93;9.93;;;;;;;;;;5011588;28;20405;-46
2021/08/04 00:11:41;;;;;;;13.17;12.00;;;;;;;;;;5011129;28;20470;-47
2021/08/04 00:14:07;;;;;;;8.57;7.80;;;;;;;;;;5011482;28;20391;-48
2021/08/04 00:16:34;;;;;;;16.87;15.13;;;;;;;;;;5011211;28;20881;-48
2021/08/04 00:18:59;;;;;;;8.63;7.83;;;;;;;;;;5011422;28;20430;-46
2021/08/04 00:21:25;;;;;;;16.87;11.03;;;;;;;;;;5011177;28;20456;-48
2021/08/04 00:23:51;;;;;;;12.13;11.00;;;;;;;;;;5011251;28;20772;-48
2021/08/04 00:26:17;;;;;;;9.33;7.70;;;;;;;;;;5011121;28;20407;-46
2021/08/04 00:28:43;;;;;;;16.83;15.40;;;;;;;;;;5011406;28;20407;-47
2021/08/04 00:31:10;;;;;;;12.53;11.50;;;;;;;;;;4993453;28;20429;-46
2021/08/04 00:33:35;;;;;;;19.33;17.53;;;;;;;;;;5011068;28;20399;-46
2021/08/04 00:36:01;;;;;;;11.97;10.97;;;;;;;;;;5011246;28;20801;-46
2021/08/04 00:38:27;;;;;;;11.40;9.67;;;;;;;;;;5011465;28;20490;-47
2021/08/04 00:40:53;;;;;;;12.83;11.53;;;;;;;;;;5010837;28;20374;-47
2021/08/04 00:43:19;;;;;;;83.37;46.47;;;;;;;;;;5010932;28;20386;-47
2021/08/04 00:45:45;;;;;;;28.23;26.30;;;;;;;;;;5011058;28;20418;-47
2021/08/04 00:48:11;;;;;;;19.13;17.23;;;;;;;;;;5011005;28;20456;-47
2021/08/04 00:50:37;;;;;;;28.47;22.40;;;;;;;;;;5010753;28;20438;-47
2021/08/04 00:53:23;;;;;;;13.13;11.93;;;;;;;;;;5010899;28;20371;-47
2021/08/04 00:55:50;;;;;;;11.43;9.30;;;;;;;;;;5010801;28;20759;-47
2021/08/04 00:58:16;;;;;;;14.00;12.70;;;;;;;;;;5010952;28;20477;-47
2021/08/04 01:00:46;;;;;;;20.73;11.30;;;;;;;;;;5010472;28;20382;-47
2021/08/04 01:03:16;;;;;;;24.37;22.47;;;;;;;;;;5010396;28;20437;-47
2021/08/04 01:05:51;;;;;;;12.43;9.17;;;;;;;;;;5010695;28;20460;-47
2021/08/04 01:08:20;;;;;;;21.63;16.50;;;;;;;;;;5010763;28;20436;-47
2021/08/04 01:10:51;;;;;;;24.77;22.77;;;;;;;;;;5010751;28;20802;-47
2021/08/04 01:13:36;;;;;;;28.03;18.47;;;;;;;;;;5010759;28;20382;-47
2021/08/04 01:16:05;;;;;;;17.60;16.30;;;;;;;;;;5010800;28;20485;-47
2021/08/04 01:18:36;;;;;;;18.77;16.83;;;;;;;;;;5010547;28;20423;-47
2021/08/04 01:21:02;;;;;;;16.70;12.30;;;;;;;;;;5010720;28;20720;-47
2021/08/04 01:23:47;;;;;;;12.80;9.30;;;;;;;;;;5010688;28;20369;-47
2021/08/04 01:26:22;;;;;;;16.30;13.00;;;;;;;;;;5010793;28;20453;-47
2021/08/04 01:28:49;;;;;;;20.33;18.43;;;;;;;;;;5014322;28;20402;-47
2021/08/04 01:31:18;;;;;;;9.87;8.87;;;;;;;;;;5014180;28;20577;-47
2021/08/04 01:33:46;;;;;;;36.93;32.20;;;;;;;;;;5014564;28;20402;-47
2021/08/04 01:36:13;;;;;;;11.37;9.47;;;;;;;;;;5014408;28;20378;-47
2021/08/04 01:38:39;;;;;;;9.47;8.47;;;;;;;;;;5014199;28;20438;-47
2021/08/04 01:41:06;;;;;;;9.73;8.80;;;;;;;;;;5014031;28;20490;-47
2021/08/04 01:43:33;;;;;;;9.10;8.33;;;;;;;;;;5014120;28;20878;-47
2021/08/04 01:46:00;;;;;;;11.00;8.80;;;;;;;;;;5014122;28;20394;-47
2021/08/04 01:48:26;;;;;;;11.67;8.30;;;;;;;;;;5014312;28;20466;-47
2021/08/04 01:50:53;;;;;;;10.60;8.53;;;;;;;;;;5013908;28;20466;-47
2021/08/04 01:53:20;;;;;;;11.63;10.03;;;;;;;;;;5013960;28;20425;-47
2021/08/04 01:55:46;;;;;;;10.10;9.07;;;;;;;;;;5013984;28;20404;-47
2021/08/04 01:58:12;;;;;;;9.53;8.57;;;;;;;;;;5013801;28;20510;-47
2021/08/04 02:00:38;;;;;;;9.03;8.23;;;;;;;;;;5013624;28;20913;-47
2021/08/04 02:03:04;;;;;;;9.37;8.47;;;;;;;;;;5013787;28;20402;-47
2021/08/04 02:05:30;;;;;;;9.43;8.03;;;;;;;;;;5013759;28;20377;-47
2021/08/04 02:08:11;;;;;;;10.27;9.27;;;;;;;;;;5013690;28;20426;-47
2021/08/04 02:10:37;;;;;;;17.33;9.97;;;;;;;;;;5013270;28;20488;-46
2021/08/04 02:13:29;;;;;;;10.60;9.50;;;;;;;;;;5013669;28;20379;-47
2021/08/04 02:16:00;;;;;;;10.63;9.50;;;;;;;;;;4976208;28;20407;-47
2021/08/04 02:18:29;;;;;;;12.07;9.33;;;;;;;;;;5013574;28;20415;-47
2021/08/04 02:20:57;;;;;;;10.87;9.63;;;;;;;;;;5013162;28;20871;-47
2021/08/04 02:23:26;;;;;;;13.43;10.80;;;;;;;;;;5013364;28;20382;-47
2021/08/04 02:26:00;;;;;;;12.30;11.10;;;;;;;;;;5013464;28;20377;-47
2021/08/04 02:28:38;;;;;;;11.20;10.20;;;;;;;;;;5013318;28;20422;-47
2021/08/04 02:31:05;;;;;;;14.27;11.00;;;;;;;;;;5012933;28;20893;-47
2021/08/04 02:33:32;;;;;;;13.23;10.67;;;;;;;;;;5013176;28;20461;-47
2021/08/04 02:35:58;;;;;;;11.93;10.60;;;;;;;;;;5013175;28;20399;-47
2021/08/04 02:38:24;;;;;;;13.23;11.83;;;;;;;;;;5011763;28;20801;-47
2021/08/04 02:40:50;;;;;;;12.40;11.10;;;;;;;;;;5013076;28;20412;-47
2021/08/04 02:43:17;;;;;;;13.07;10.53;;;;;;;;;;5012890;28;20415;-47
2021/08/04 02:45:44;;;;;;;12.17;10.10;;;;;;;;;;5013065;28;20745;-47
2021/08/04 02:48:11;;;;;;;13.77;10.40;;;;;;;;;;5013085;28;20867;-47
2021/08/04 02:50:38;;;;;;;13.67;10.00;;;;;;;;;;5012896;28;20436;-47
2021/08/04 02:53:05;;;;;;;11.97;9.87;;;;;;;;;;5012991;28;20414;-47
2021/08/04 02:55:31;;;;;;;11.10;9.70;;;;;;;;;;5013200;28;20457;-47
2021/08/04 02:57:57;;;;;;;12.33;9.73;;;;;;;;;;5012754;28;20498;-47
2021/08/04 03:00:23;;;;;;;11.40;10.23;;;;;;;;;;5012594;28;20378;-47
2021/08/04 03:02:49;;;;;;;12.27;10.97;;;;;;;;;;5012598;28;20418;-47
2021/08/04 03:05:16;;;;;;;12.17;11.00;;;;;;;;;;5012660;28;20410;-47
2021/08/04 03:07:42;;;;;;;14.30;12.80;;;;;;;;;;5012618;28;20473;-47
2021/08/04 03:10:08;;;;;;;14.07;11.60;;;;;;;;;;5012394;28;20455;-47
2021/08/04 03:12:34;;;;;;;15.13;12.27;;;;;;;;;;5012513;28;20403;-47
2021/08/04 03:15:00;;;;;;;14.10;12.07;;;;;;;;;;5012542;28;20497;-47
2021/08/04 03:17:26;;;;;;;11.53;10.40;;;;;;;;;;5012249;28;20489;-47
2021/08/04 03:19:52;;;;;;;12.87;11.57;;;;;;;;;;5012498;28;20428;-47
2021/08/04 03:22:18;;;;;;;14.23;12.50;;;;;;;;;;5012513;28;20382;-47
2021/08/04 03:24:44;;;;;;;14.83;12.10;;;;;;;;;;5012451;28;20468;-47
2021/08/04 03:27:10;;;;;;;15.13;12.90;;;;;;;;;;5012265;28;20423;-47
2021/08/04 03:29:36;;;;;;;15.00;12.73;;;;;;;;;;5012044;28;20389;-47
2021/08/04 03:32:04;;;;;;;16.40;12.07;;;;;;;;;;5012144;28;20415;-47
2021/08/04 03:34:30;;;;;;;16.83;12.87;;;;;;;;;;5012389;28;20408;-47
2021/08/04 03:36:56;;;;;;;14.57;12.90;;;;;;;;;;5012114;28;20439;-47
2021/08/04 03:39:21;;;;;;;17.77;13.40;;;;;;;;;;5012103;28;20410;-47
2021/08/04 03:41:47;;;;;;;14.50;13.07;;;;;;;;;;5012236;28;20370;-47
2021/08/04 03:44:13;;;;;;;14.60;12.63;;;;;;;;;;5012004;28;20408;-47
2021/08/04 03:46:39;;;;;;;14.20;12.70;;;;;;;;;;5012014;28;20471;-47
2021/08/04 03:49:05;;;;;;;14.53;13.00;;;;;;;;;;5011757;28;20403;-47
2021/08/04 03:51:31;;;;;;;31.27;28.13;;;;;;;;;;5011393;28;20513;-47
2021/08/04 03:53:57;;;;;;;12.63;11.43;;;;;;;;;;5011681;28;20404;-46
2021/08/04 03:56:23;;;;;;;14.87;12.50;;;;;;;;;;5011738;28;20449;-47
2021/08/04 03:58:49;;;;;;;13.67;12.20;;;;;;;;;;5011709;28;20402;-47
2021/08/04 04:01:15;;;;;;;15.50;12.17;;;;;;;;;;5011801;28;20456;-47
2021/08/04 04:03:41;;;;;;;14.00;12.60;;;;;;;;;;5011471;28;20403;-47
2021/08/04 04:06:07;;;;;;;13.50;12.10;;;;;;;;;;5011741;28;20391;-47
2021/08/04 04:08:33;;;;;;;16.90;12.67;;;;;;;;;;5011374;28;20397;-47
2021/08/04 04:10:59;;;;;;;14.27;12.87;;;;;;;;;;5011315;28;20451;-47
2021/08/04 04:13:25;;;;;;;16.73;12.87;;;;;;;;;;5011364;28;20377;-46
2021/08/04 04:15:51;;;;;;;14.53;13.03;;;;;;;;;;5011344;28;20399;-47
2021/08/04 04:18:17;;;;;;;17.33;14.47;;;;;;;;;;5011360;28;20557;-47
2021/08/04 04:20:43;;;;;;;17.30;13.27;;;;;;;;;;5011019;28;20388;-46
2021/08/04 04:23:08;;;;;;;14.20;12.63;;;;;;;;;;5011275;28;20395;-47
2021/08/04 04:25:34;;;;;;;15.87;13.93;;;;;;;;;;5011528;28;20377;-47
2021/08/04 04:28:02;;;;;;;14.37;12.90;;;;;;;;;;5011116;28;20441;-47
2021/08/04 04:30:28;;;;;;;15.80;14.10;;;;;;;;;;5010917;28;20888;-47
2021/08/04 04:32:53;;;;;;;17.60;12.40;;;;;;;;;;5011179;28;20924;-47
2021/08/04 04:35:19;;;;;;;14.07;12.63;;;;;;;;;;5010997;28;20440;-47
2021/08/04 04:37:45;;;;;;;14.50;13.10;;;;;;;;;;5010916;28;20469;-46
2021/08/04 04:40:12;;;;;;;36.40;33.80;;;;;;;;;;5010768;28;20410;-46
2021/08/04 04:42:38;;;;;;;16.03;14.23;;;;;;;;;;5010943;28;20381;-47
2021/08/04 04:45:04;;;;;;;35.23;32.00;;;;;;;;;;5010878;28;20937;-47
2021/08/04 04:47:30;;;;;;;14.73;13.10;;;;;;;;;;5010972;28;20430;-47
2021/08/04 04:49:56;;;;;;;17.03;13.20;;;;;;;;;;5010623;28;20553;-46
2021/08/04 04:52:22;;;;;;;15.10;12.70;;;;;;;;;;5010851;28;20460;-47
2021/08/04 04:54:48;;;;;;;12.83;11.50;;;;;;;;;;5010967;28;20406;-47
2021/08/04 04:57:13;;;;;;;12.67;11.37;;;;;;;;;;5010802;28;20812;-47
2021/08/04 04:59:39;;;;;;;16.53;15.03;;;;;;;;;;5010700;28;20369;-46
2021/08/04 05:02:05;;;;;;;11.07;9.97;;;;;;;;;;5011995;28;20454;-47
2021/08/04 05:04:31;;;;;;;11.83;10.67;;;;;;;;;;5015274;28;20401;-47
2021/08/04 05:06:57;;;;;;;10.40;9.37;;;;;;;;;;5014789;28;20394;-47
2021/08/04 05:09:23;;;;;;;10.20;9.30;;;;;;;;;;5015580;28;20888;-47
2021/08/04 05:11:49;;;;;;;11.10;10.03;;;;;;;;;;5014382;28;20521;-46
2021/08/04 05:14:15;;;;;;;11.20;10.20;;;;;;;;;;5014740;28;20395;-46
2021/08/04 05:16:41;;;;;;;10.17;9.13;;;;;;;;;;5014582;28;20413;-47
2021/08/04 05:19:07;;;;;;;9.87;8.87;;;;;;;;;;5014655;28;20410;-47
2021/08/04 05:21:33;;;;;;;11.33;10.13;;;;;;;;;;5014354;28;20417;-47
2021/08/04 05:23:59;;;;;;;11.70;10.50;;;;;;;;;;5014529;28;20377;-47
2021/08/04 05:26:26;;;;;;;11.83;10.83;;;;;;;;;;5014328;28;20377;-47
2021/08/04 05:28:52;;;;;;;13.90;12.50;;;;;;;;;;5014477;28;20436;-47
2021/08/04 05:31:18;;;;;;;15.07;11.47;;;;;;;;;;5014122;28;20457;-47
2021/08/04 05:33:45;;;;;;;13.97;11.97;;;;;;;;;;5014472;28;20461;-47
2021/08/04 05:36:11;;;;;;;12.97;11.73;;;;;;;;;;5014463;28;20378;-47
2021/08/04 05:38:37;;;;;;;14.97;11.97;;;;;;;;;;5014269;28;20901;-47
2021/08/04 05:41:03;;;;;;;13.87;12.47;;;;;;;;;;5013926;28;20374;-47
2021/08/04 05:43:29;;;;;;;15.10;13.00;;;;;;;;;;5014187;28;20407;-47
2021/08/04 05:45:54;;;;;;;16.23;12.20;;;;;;;;;;5014238;28;20385;-47
2021/08/04 05:48:20;;;;;;;15.73;12.80;;;;;;;;;;5014031;28;20430;-47
2021/08/04 05:50:46;;;;;;;23.13;14.77;;;;;;;;;;5013923;28;20424;-47
2021/08/04 05:53:12;;;;;;;17.80;13.63;;;;;;;;;;5014170;28;20391;-47
2021/08/04 05:55:38;;;;;;;17.67;15.20;;;;;;;;;;5014207;28;20486;-47
2021/08/04 05:58:04;;;;;;;19.13;15.97;;;;;;;;;;5014008;28;20415;-47
2021/08/04 06:00:30;;;;;;;18.63;16.50;;;;;;;;;;5013876;28;20390;-47
2021/08/04 06:02:56;;;;;;;24.90;17.20;;;;;;;;;;5013737;28;20389;-47
2021/08/04 06:05:22;;;;;;;19.27;17.03;;;;;;;;;;5013935;28;20421;-47
2021/08/04 06:07:48;;;;;;;22.97;17.97;;;;;;;;;;5013652;28;20501;-47
2021/08/04 06:10:14;;;;;;;22.33;19.33;;;;;;;;;;5013923;28;20458;-47
2021/08/04 06:12:40;;;;;;;21.77;19.47;;;;;;;;;;5013657;28;20380;-47
2021/08/04 06:15:06;;;;;;;28.77;20.10;;;;;;;;;;5013728;28;20372;-47
2021/08/04 06:17:32;;;;;;;20.47;18.10;;;;;;;;;;5013440;28;20490;-47
2021/08/04 06:19:58;;;;;;;19.30;17.20;;;;;;;;;;5013426;28;20499;-47
2021/08/04 06:22:24;;;;;;;17.10;15.50;;;;;;;;;;5013384;28;20416;-47
2021/08/04 06:24:50;;;;;;;18.73;16.73;;;;;;;;;;5013332;28;20414;-47
2021/08/04 06:27:16;;;;;;;18.40;16.47;;;;;;;;;;5013475;28;20427;-47
2021/08/04 06:29:42;;;;;;;22.70;16.53;;;;;;;;;;5013032;28;20444;-47
2021/08/04 06:32:08;;;;;;;17.77;15.87;;;;;;;;;;5013282;28;20413;-47
2021/08/04 06:34:34;;;;;;;15.97;14.37;;;;;;;;;;5013300;28;20433;-47
2021/08/04 06:37:00;;;;;;;14.17;12.80;;;;;;;;;;5013748;28;20826;-47
2021/08/04 06:39:26;;;;;;;15.63;14.10;;;;;;;;;;5013055;28;20413;-47
2021/08/04 06:41:52;;;;;;;18.20;15.17;;;;;;;;;;5012852;28;20888;-47
2021/08/04 06:44:18;;;;;;;14.33;13.03;;;;;;;;;;5013082;28;20871;-47
2021/08/04 06:46:44;;;;;;;14.00;12.60;;;;;;;;;;5012993;28;20401;-47
2021/08/04 06:49:10;;;;;;;17.27;12.87;;;;;;;;;;5012970;28;20378;-47
2021/08/04 06:51:36;;;;;;;13.93;12.07;;;;;;;;;;5012752;28;20450;-47
2021/08/04 06:54:02;;;;;;;13.63;11.13;;;;;;;;;;5012716;28;20472;-47
2021/08/04 06:56:28;;;;;;;14.73;13.23;;;;;;;;;;5012867;28;20436;-47
2021/08/04 06:58:54;;;;;;;13.53;12.30;;;;;;;;;;5012799;28;20466;-47
2021/08/04 07:01:20;;;;;;;13.87;12.47;;;;;;;;;;5012615;28;20443;-47
2021/08/04 07:03:46;;;;;;;14.20;11.63;;;;;;;;;;5012617;28;20893;-47
2021/08/04 07:06:12;;;;;;;15.73;11.60;;;;;;;;;;5013135;28;20405;-47
2021/08/04 07:08:38;;;;;;;16.20;11.07;;;;;;;;;;5012430;28;20442;-47
2021/08/04 07:11:05;;;;;;;16.60;11.70;;;;;;;;;;5012328;28;20470;-47
2021/08/04 07:13:31;;;;;;;12.23;11.10;;;;;;;;;;5012704;28;20400;-47
2021/08/04 07:15:57;;;;;;;12.53;11.00;;;;;;;;;;5012438;28;20989;-47
2021/08/04 07:18:23;;;;;;;14.30;10.03;;;;;;;;;;5012586;28;20426;-47
2021/08/04 07:20:49;;;;;;;11.23;10.13;;;;;;;;;;5012202;28;20844;-47
2021/08/04 07:23:15;;;;;;;13.07;9.70;;;;;;;;;;5012429;28;20409;-47
2021/08/04 07:25:41;;;;;;;9.80;8.90;;;;;;;;;;5011681;28;20415;-47
2021/08/04 07:28:07;;;;;;;10.83;9.73;;;;;;;;;;5012274;28;20443;-47
2021/08/04 07:30:33;;;;;;;10.80;9.70;;;;;;;;;;5011949;28;20815;-47
2021/08/04 07:32:59;;;;;;;10.40;8.10;;;;;;;;;;5012275;28;20409;-47
2021/08/04 07:35:25;;;;;;;9.00;8.10;;;;;;;;;;5012175;28;20489;-47
2021/08/04 07:37:51;;;;;;;9.93;8.20;;;;;;;;;;5012264;28;20979;-47
2021/08/04 07:40:18;;;;;;;10.83;8.67;;;;;;;;;;5012108;28;20405;-46
2021/08/04 07:42:44;;;;;;;9.27;8.27;;;;;;;;;;5012306;28;20417;-47
2021/08/04 07:45:10;;;;;;;13.30;8.63;;;;;;;;;;5012193;28;20891;-47
2021/08/04 07:47:36;;;;;;;9.00;7.90;;;;;;;;;;5012779;28;20431;-47
2021/08/04 07:50:05;;;;;;;9.20;8.40;;;;;;;;;;5011864;28;20447;-47
2021/08/04 07:52:31;;;;;;;8.63;7.87;;;;;;;;;;5011786;28;20418;-47
2021/08/04 07:54:56;;;;;;;9.90;8.80;;;;;;;;;;5012044;28;20410;-47
2021/08/04 07:57:22;;;;;;;9.17;7.40;;;;;;;;;;5011688;28;20434;-47
2021/08/04 07:59:48;;;;;;;8.70;7.80;;;;;;;;;;5011555;28;20403;-47
2021/08/04 08:02:14;;;;;;;8.70;7.90;;;;;;;;;;5011555;28;20772;-47
2021/08/04 08:04:40;;;;;;;6.20;5.53;;;;;;;;;;5011594;28;20416;-47
2021/08/04 08:07:07;;;;;;;10.00;6.30;;;;;;;;;;5011691;28;20434;-47
2021/08/04 08:09:33;;;;;;;6.60;5.43;;;;;;;;;;5011504;28;20910;-47
2021/08/04 08:11:59;;;;;;;5.77;5.27;;;;;;;;;;5011277;28;20966;-47
2021/08/04 08:14:26;;;;;;;7.77;6.03;;;;;;;;;;5011630;28;20489;-47
2021/08/04 08:16:53;;;;;;;9.60;6.97;;;;;;;;;;5014458;28;20437;-47
2021/08/04 08:19:19;;;;;;;9.83;7.20;;;;;;;;;;5017663;28;20411;-48
2021/08/04 08:21:46;;;;;;;7.90;7.10;;;;;;;;;;5012368;28;20430;-48
2021/08/04 08:24:12;;;;;;;9.17;8.03;;;;;;;;;;5014331;28;20473;-47
2021/08/04 08:26:38;;;;;;;6.93;6.23;;;;;;;;;;5028249;28;20900;-47
2021/08/04 08:29:05;;;;;;;11.33;6.87;;;;;;;;;;5013634;28;20423;-48
2021/08/04 08:31:32;;;;;;;7.63;6.80;;;;;;;;;;5009761;28;20549;-48
2021/08/04 08:34:00;;;;;;;8.40;7.60;;;;;;;;;;5009087;28;20422;-48
2021/08/04 08:36:29;;;;;;;7.00;6.07;;;;;;;;;;5010901;28;20514;-48
2021/08/04 08:38:56;;;;;;;6.40;5.80;;;;;;;;;;5011206;28;20414;-48
2021/08/04 08:41:22;;;;;;;5.67;5.00;;;;;;;;;;5011115;28;20423;-48
2021/08/04 08:43:48;;;;;;;7.03;5.30;;;;;;;;;;5010955;28;20407;-48
2021/08/04 08:46:14;;;;;;;5.40;4.90;;;;;;;;;;5010937;28;20505;-48
2021/08/04 08:48:44;;;;;;;5.43;4.70;;;;;;;;;;4994941;28;20429;-47
2021/08/04 08:51:10;;;;;;;6.23;5.60;;;;;;;;;;4999383;28;21001;-47
2021/08/04 08:53:38;;;;;;;7.17;6.03;;;;;;;;;;4999558;28;20411;-47
2021/08/04 08:56:06;;;;;;;5.93;5.33;;;;;;;;;;5006211;28;20404;-48
2021/08/04 08:58:32;;;;;;;8.60;6.60;;;;;;;;;;4999017;28;20420;-48
2021/08/04 09:00:58;;;;;;;9.90;7.80;;;;;;;;;;4993736;28;20515;-48
2021/08/04 09:03:24;;;;;;;7.90;6.83;;;;;;;;;;5000057;28;20485;-47
2021/08/04 09:05:57;;;;;;;6.20;5.60;;;;;;;;;;4991354;28;20427;-48
2021/08/04 09:08:24;;;;;;;7.23;6.40;;;;;;;;;;4991230;28;20423;-48
2021/08/04 09:10:49;;;;;;;5.70;5.13;;;;;;;;;;4990558;28;20550;-48
2021/08/04 09:13:15;;;;;;;7.47;5.60;;;;;;;;;;4991223;28;20432;-47
2021/08/04 09:15:43;;;;;;;8.10;5.63;;;;;;;;;;4991337;28;20743;-47
2021/08/04 09:18:09;;;;;;;8.03;6.20;;;;;;;;;;4991600;28;20427;-47
2021/08/04 09:20:41;;;;;;;6.03;5.53;;;;;;;;;;5003938;28;20454;-47
2021/08/04 09:23:10;;;;;;;6.73;5.40;;;;;;;;;;4991171;28;20808;-47
2021/08/04 09:25:36;;;;;;;5.50;4.80;;;;;;;;;;4991053;28;20443;-47
2021/08/04 09:28:02;;;;;;;10.97;6.90;;;;;;;;;;4998005;28;20452;-47
2021/08/04 09:30:34;;;;;;;9.33;6.93;;;;;;;;;;5003367;28;20459;-47
2021/08/04 09:33:23;;;;;;;7.20;6.50;;;;;;;;;;5003124;28;20409;-47
2021/08/04 09:35:53;;;;;;;6.73;5.50;;;;;;;;;;5010507;28;20404;-47
2021/08/04 09:38:20;;;;;;;7.07;5.93;;;;;;;;;;5007595;28;20443;-47
2021/08/04 09:40:47;;;;;;;8.20;5.30;;;;;;;;;;5008580;28;20399;-48
2021/08/04 09:43:26;;;;;;;5.73;5.13;;;;;;;;;;5009951;28;20406;-47
2021/08/04 09:45:54;;;;;;;5.70;5.20;;;;;;;;;;5010528;28;20418;-47
2021/08/04 09:48:24;;;;;;;5.53;4.90;;;;;;;;;;5012099;28;20422;-48
2021/08/04 09:50:57;;;;;;;6.87;6.03;;;;;;;;;;5013868;28;20486;-47
2021/08/04 09:53:26;;;;;;;5.90;5.30;;;;;;;;;;5014137;28;20886;-48
2021/08/04 09:56:07;;;;;;;5.00;4.50;;;;;;;;;;5012920;28;20419;-47
2021/08/04 09:58:35;;;;;;;9.10;5.37;;;;;;;;;;5013321;28;20462;-47
2021/08/04 10:01:02;;;;;;;4.60;4.20;;;;;;;;;;4993947;28;20411;-47
2021/08/04 10:03:29;;;;;;;5.27;4.77;;;;;;;;;;5011337;28;20415;-47
2021/08/04 10:05:55;;;;;;;6.07;5.30;;;;;;;;;;5009565;28;20421;-47
2021/08/04 10:08:21;;;;;;;5.17;4.37;;;;;;;;;;4998795;28;20433;-47
2021/08/04 10:10:50;;;;;;;5.70;5.17;;;;;;;;;;4993899;28;20469;-47
2021/08/04 10:13:20;;;;;;;5.70;4.10;;;;;;;;;;4995550;28;20400;-47
2021/08/04 10:15:47;;;;;;;4.53;4.07;;;;;;;;;;4994132;28;20417;-47
2021/08/04 10:18:24;;;;;;;3.67;3.37;;;;;;;;;;4993247;28;20435;-47
2021/08/04 10:20:51;;;;;;;6.70;4.40;;;;;;;;;;4992076;28;20435;-47
2021/08/04 10:23:19;;;;;;;7.77;5.90;;;;;;;;;;4992466;28;20405;-47
2021/08/04 10:25:46;;;;;;;5.80;5.40;;;;;;;;;;4992882;28;20477;-47
2021/08/04 10:28:12;;;;;;;6.77;6.17;;;;;;;;;;4993201;28;20428;-47
2021/08/04 10:30:39;;;;;;;6.83;6.33;;;;;;;;;;4993503;28;20458;-47
2021/08/04 10:33:05;;;;;;;7.50;6.67;;;;;;;;;;4993783;28;20412;-46
2021/08/04 10:35:34;;;;;;;7.17;6.47;;;;;;;;;;4993873;28;20405;-48
2021/08/04 10:38:00;;;;;;;9.90;8.13;;;;;;;;;;4993433;28;20443;-47
2021/08/04 10:40:27;;;;;;;8.80;8.07;;;;;;;;;;4993546;28;20400;-47
2021/08/04 10:42:53;;;;;;;8.33;7.10;;;;;;;;;;4993707;28;20892;-48
2021/08/04 10:45:22;;;;;;;10.33;9.10;;;;;;;;;;4993640;28;20444;-47
2021/08/04 10:47:48;;;;;;;7.03;6.50;;;;;;;;;;4993732;28;20420;-47
2021/08/04 10:50:14;;;;;;;6.50;6.00;;;;;;;;;;4993411;28;20514;-47
2021/08/04 10:52:58;;;;;;;7.40;6.70;;;;;;;;;;4993472;28;20895;-47
2021/08/04 10:55:25;;;;;;;7.93;7.17;;;;;;;;;;4993231;28;20408;-47
2021/08/04 10:58:12;;;;;;;7.40;6.70;;;;;;;;;;4993132;28;20430;-46
2021/08/04 11:00:38;;;;;;;8.30;7.70;;;;;;;;;;4992159;28;20469;-47
2021/08/04 11:03:23;;;;;;;14.03;12.70;;;;;;;;;;4993513;28;20986;-47
2021/08/04 11:06:12;;;;;;;16.17;14.67;;;;;;;;;;5001678;28;20411;-47
2021/08/04 11:08:40;;;;;;;14.97;13.73;;;;;;;;;;5003068;28;20455;-48
2021/08/04 11:11:07;;;;;;;14.53;13.23;;;;;;;;;;5005548;28;20495;-46
2021/08/04 11:13:51;;;;;;;15.03;13.60;;;;;;;;;;5003485;28;20972;-47
2021/08/04 11:16:27;;;;;;;13.10;12.00;;;;;;;;;;4994145;28;20419;-46
2021/08/04 11:19:00;;;;;;;12.70;11.60;;;;;;;;;;4991427;28;20470;-47
2021/08/04 11:21:27;;;;;;;13.27;12.07;;;;;;;;;;4995413;28;20474;-47
2021/08/04 11:23:55;;;;;;;12.40;11.40;;;;;;;;;;5008997;28;20441;-47
2021/08/04 11:26:28;;;;;;;14.40;13.20;;;;;;;;;;5010859;28;20395;-48
2021/08/04 11:28:55;;;;;;;12.10;11.10;;;;;;;;;;5011162;28;20941;-47
2021/08/04 11:31:21;;;;;;;12.40;11.47;;;;;;;;;;5011454;28;20557;-47
2021/08/04 11:33:47;;;;;;;13.50;12.40;;;;;;;;;;5012093;28;20754;-47
2021/08/04 11:36:19;;;;;;;11.90;10.70;;;;;;;;;;5011632;28;20410;-47
2021/08/04 11:38:48;;;;;;;10.87;9.97;;;;;;;;;;5002518;28;20761;-47
2021/08/04 11:41:17;;;;;;;11.17;10.17;;;;;;;;;;5002621;28;20416;-47
2021/08/04 11:43:43;;;;;;;9.30;8.70;;;;;;;;;;5010494;28;20425;-47
2021/08/04 11:46:09;;;;;;;10.07;9.07;;;;;;;;;;5011522;28;20403;-47
2021/08/04 11:48:49;;;;;;;10.47;9.53;;;;;;;;;;5007775;28;20433;-47
2021/08/04 11:51:15;;;;;;;8.87;8.20;;;;;;;;;;5011537;28;20462;-47
2021/08/04 11:53:44;;;;;;;8.53;7.83;;;;;;;;;;5012059;28;20442;-47
2021/08/04 11:56:10;;;;;;;10.30;9.60;;;;;;;;;;4997383;28;20503;-47
2021/08/04 11:58:36;;;;;;;8.40;7.80;;;;;;;;;;5000008;28;20513;-47
2021/08/04 12:01:18;;;;;;;7.70;7.20;;;;;;;;;;4999844;28;20414;-49
2021/08/04 12:03:44;;;;;;;6.73;6.13;;;;;;;;;;4991198;28;20466;-47
2021/08/04 12:06:16;;;;;;;7.00;6.40;;;;;;;;;;4995633;28;20790;-47
2021/08/04 12:08:42;;;;;;;6.70;6.10;;;;;;;;;;4995744;28;20426;-47
2021/08/04 12:11:09;;;;;;;8.13;5.87;;;;;;;;;;4998210;28;20462;-47
2021/08/04 12:13:35;;;;;;;5.73;5.33;;;;;;;;;;5000163;28;20425;-47
2021/08/04 12:16:02;;;;;;;5.63;5.23;;;;;;;;;;5000776;28;20491;-47
2021/08/04 12:18:28;;;;;;;6.20;5.80;;;;;;;;;;4991171;28;20434;-47
2021/08/04 12:20:54;;;;;;;5.73;5.13;;;;;;;;;;4989631;28;20907;-47
2021/08/04 12:23:23;;;;;;;6.23;4.93;;;;;;;;;;4990067;28;20412;-47
2021/08/04 12:25:59;;;;;;;5.53;5.13;;;;;;;;;;4990693;28;20404;-47
2021/08/04 12:28:29;;;;;;;4.60;4.30;;;;;;;;;;4991690;28;20454;-47
2021/08/04 12:30:56;;;;;;;4.20;3.90;;;;;;;;;;4991487;28;20502;-47
2021/08/04 12:33:23;;;;;;;10.33;4.80;;;;;;;;;;4991632;28;20928;-48
2021/08/04 12:38:39;;;;;;;4.53;4.17;;;;;;;;;;4992178;28;20490;-49
2021/08/04 12:41:05;;;;;;;4.83;4.40;;;;;;;;;;4991355;28;20404;-47
2021/08/04 12:43:33;;;;;;;4.40;4.00;;;;;;;;;;4991481;28;20396;-47
2021/08/04 12:45:59;;;;;;;4.90;4.60;;;;;;;;;;4991379;28;20400;-48
2021/08/04 12:48:42;;;;;;;4.33;3.70;;;;;;;;;;4991395;28;20795;-47
2021/08/04 12:51:26;;;;;;;3.10;2.90;;;;;;;;;;4991128;28;20459;-49
2021/08/04 12:53:55;;;;;;;3.53;3.23;;;;;;;;;;4991554;28;20408;-47
2021/08/04 12:56:28;;;;;;;4.77;4.27;;;;;;;;;;4991072;28;20462;-48
2021/08/04 12:58:56;;;;;;;3.57;3.37;;;;;;;;;;4991571;28;20408;-47
2021/08/04 13:01:23;;;;;;;4.40;4.00;;;;;;;;;;4991093;28;20916;-48
2021/08/04 13:03:52;;;;;;;5.43;3.73;;;;;;;;;;4991454;28;20400;-47
2021/08/04 13:06:39;;;;;;;4.10;3.80;;;;;;;;;;4991125;28;20410;-48
2021/08/04 13:09:06;;;;;;;4.97;4.47;;;;;;;;;;4984086;28;20431;-47
2021/08/04 13:11:32;;;;;;;8.90;6.90;;;;;;;;;;4990937;28;20463;-47
2021/08/04 13:14:00;;;;;;;8.20;7.40;;;;;;;;;;4991315;28;21188;-47
2021/08/04 13:16:32;;;;;;;6.90;6.07;;;;;;;;;;4991068;28;20403;-47
2021/08/04 13:18:58;;;;;;;5.80;5.40;;;;;;;;;;4991315;28;20404;-47
2021/08/04 13:21:24;;;;;;;7.13;6.17;;;;;;;;;;4990923;28;20494;-47
2021/08/04 13:23:50;;;;;;;7.90;6.03;;;;;;;;;;4993606;28;20437;-47
2021/08/04 13:26:18;;;;;;;6.30;5.70;;;;;;;;;;4994915;28;20453;-47
2021/08/04 13:28:47;;;;;;;5.50;5.07;;;;;;;;;;4995087;28;20411;-47
2021/08/04 13:31:16;;;;;;;7.23;4.57;;;;;;;;;;4994699;28;20534;-48
2021/08/04 13:33:43;;;;;;;5.10;4.60;;;;;;;;;;4994930;28;20467;-47
2021/08/04 13:36:09;;;;;;;4.97;4.03;;;;;;;;;;4994721;28;20772;-47
2021/08/04 13:38:36;;;;;;;8.00;4.70;;;;;;;;;;4996774;28;20536;-47
2021/08/04 13:41:01;;;;;;;5.67;4.60;;;;;;;;;;5014213;28;20410;-47
2021/08/04 13:43:28;;;;;;;5.73;4.67;;;;;;;;;;5014247;28;20414;-47
2021/08/04 13:45:54;;;;;;;5.90;4.50;;;;;;;;;;5014234;28;20403;-47
2021/08/04 13:48:20;;;;;;;4.73;4.40;;;;;;;;;;5014041;28;20461;-47
2021/08/04 13:50:47;;;;;;;5.50;5.10;;;;;;;;;;5013950;28;20463;-46
2021/08/04 13:53:13;;;;;;;7.30;6.07;;;;;;;;;;5014116;28;20403;-46
2021/08/04 13:55:39;;;;;;;15.80;5.87;;;;;;;;;;5014225;28;20533;-46
2021/08/04 13:58:05;;;;;;;9.40;6.73;;;;;;;;;;5014187;28;21019;-46
2021/08/04 14:00:32;;;;;;;7.00;6.50;;;;;;;;;;5014045;28;21139;-46
2021/08/04 14:02:59;;;;;;;6.50;5.87;;;;;;;;;;5014210;28;20496;-47
2021/08/04 14:05:26;;;;;;;7.60;6.03;;;;;;;;;;5014236;28;20418;-46
2021/08/04 14:07:54;;;;;;;8.30;6.80;;;;;;;;;;5013939;28;20435;-46
2021/08/04 14:10:21;;;;;;;6.80;6.37;;;;;;;;;;5013599;28;21003;-46
2021/08/04 14:12:47;;;;;;;6.63;6.13;;;;;;;;;;5013962;28;20485;-46
2021/08/04 14:15:15;;;;;;;7.00;6.40;;;;;;;;;;5013844;28;20780;-46
2021/08/04 14:17:41;;;;;;;6.33;5.80;;;;;;;;;;5013606;28;20449;-46
2021/08/04 14:20:08;;;;;;;10.13;5.93;;;;;;;;;;5013568;28;20893;-46
2021/08/04 14:22:34;;;;;;;8.33;6.23;;;;;;;;;;5013590;28;20895;-46
2021/08/04 14:25:00;;;;;;;6.97;6.13;;;;;;;;;;5013559;28;20395;-46
2021/08/04 14:27:26;;;;;;;6.00;5.50;;;;;;;;;;5013140;28;20415;-46
2021/08/04 14:29:52;;;;;;;7.43;6.13;;;;;;;;;;5018124;28;20508;-46
2021/08/04 14:32:20;;;;;;;6.57;6.07;;;;;;;;;;5013179;28;20811;-48
2021/08/04 14:34:46;;;;;;;7.07;6.47;;;;;;;;;;5013243;28;20807;-47
2021/08/04 14:37:12;;;;;;;6.70;6.10;;;;;;;;;;5012857;28;20447;-46